# Tabular Observed and Forecast Hydrograph Information
#
# Location: Santa Clara River - Piru (SCPC1)
#
# File Generation Time: 05/03/2026 at 09:07 AM PDT
# Data Interval: 1 Hour
#
# Most Recent Date & Time of Maximum Observed: 04/28/2026 at 10:00 PM PDT
# Maximum Observed Stage: 3.27 Feet
# Maximum Observed Flow: 408 cfs
#
# Earliest Date & Time of Maximum Forecast: 05/05/2026 at 09:00 AM PDT
# Maximum Forecast Stage: 2.36 Feet
# Maximum Forecast Flow: 217 cfs
#
# OBSERVED
#
# Date & Time (Local) Stage (Feet) Flow (cfs) Trend Observed Status
# ---------------------------------------------------------------------------------
04/28/2026 09 AM PDT 3.11 369 Normal
04/28/2026 10 AM PDT 3.17 383 + Normal
04/28/2026 11 AM PDT 3.14 376 - Normal
04/28/2026 12 PM PDT 3.15 379 + Normal
04/28/2026 01 PM PDT 3.22 395 + Normal
04/28/2026 02 PM PDT 3.15 379 - Normal
04/28/2026 03 PM PDT 3.17 383 + Normal
04/28/2026 04 PM PDT 3.24 400 + Normal
04/28/2026 05 PM PDT 3.19 388 - Normal
04/28/2026 06 PM PDT 3.21 393 + Normal
04/28/2026 07 PM PDT 3.05 355 - Normal
04/28/2026 08 PM PDT 3.12 371 + Normal
04/28/2026 09 PM PDT 3.16 381 + Normal
04/28/2026 10 PM PDT 3.27 408 + Normal
04/28/2026 11 PM PDT 3.12 371 - Normal
04/29/2026 12 AM PDT 3.14 376 + Normal
04/29/2026 01 AM PDT 3.12 371 - Normal
04/29/2026 02 AM PDT 3.07 360 - Normal
04/29/2026 03 AM PDT 3.08 362 + Normal
04/29/2026 04 AM PDT 3.17 383 + Normal
04/29/2026 05 AM PDT 3.06 357 - Normal
04/29/2026 06 AM PDT 3.16 381 + Normal
04/29/2026 07 AM PDT 3.10 367 - Normal
04/29/2026 08 AM PDT 3.08 362 - Normal
04/29/2026 09 AM PDT 3.15 379 + Normal
04/29/2026 10 AM PDT 3.11 369 - Normal
04/29/2026 11 AM PDT 3.18 386 + Normal
04/29/2026 12 PM PDT 3.11 369 - Normal
04/29/2026 01 PM PDT 3.12 371 + Normal
04/29/2026 02 PM PDT 3.15 379 + Normal
04/29/2026 03 PM PDT 3.12 371 - Normal
04/29/2026 04 PM PDT 3.14 376 + Normal
04/29/2026 05 PM PDT 3.13 374 - Normal
04/29/2026 06 PM PDT 3.09 364 - Normal
04/29/2026 07 PM PDT 3.14 376 + Normal
04/29/2026 08 PM PDT 3.06 357 - Normal
04/29/2026 09 PM PDT 3.06 357 0 Normal
04/29/2026 10 PM PDT 3.10 367 + Normal
04/29/2026 11 PM PDT 3.04 353 - Normal
04/30/2026 12 AM PDT 3.10 367 + Normal
04/30/2026 01 AM PDT 3.05 355 - Normal
04/30/2026 02 AM PDT 3.08 362 + Normal
04/30/2026 03 AM PDT 3.15 379 + Normal
04/30/2026 04 AM PDT 3.15 379 0 Normal
04/30/2026 05 AM PDT 3.05 355 - Normal
04/30/2026 06 AM PDT 3.06 357 + Normal
04/30/2026 07 AM PDT 3.10 367 + Normal
04/30/2026 08 AM PDT 3.09 364 - Normal
04/30/2026 09 AM PDT 3.02 348 - Normal
04/30/2026 10 AM PDT 3.12 371 + Normal
04/30/2026 11 AM PDT 3.04 353 - Normal
04/30/2026 12 PM PDT 3.09 364 + Normal
04/30/2026 01 PM PDT 2.99 341 - Normal
04/30/2026 02 PM PDT 2.95 332 - Normal
04/30/2026 03 PM PDT 2.88 317 - Normal
04/30/2026 04 PM PDT 2.94 330 + Normal
04/30/2026 05 PM PDT 2.98 339 + Normal
04/30/2026 06 PM PDT 3.05 355 + Normal
04/30/2026 07 PM PDT 3.05 355 0 Normal
04/30/2026 08 PM PDT 3.11 369 + Normal
04/30/2026 09 PM PDT 3.14 376 + Normal
04/30/2026 10 PM PDT 3.03 350 - Normal
04/30/2026 11 PM PDT 3.11 369 + Normal
05/01/2026 12 AM PDT 3.13 374 + Normal
05/01/2026 01 AM PDT 3.04 353 - Normal
05/01/2026 02 AM PDT 3.14 376 + Normal
05/01/2026 03 AM PDT 3.01 346 - Normal
05/01/2026 04 AM PDT 2.95 332 - Normal
05/01/2026 05 AM PDT 2.99 341 + Normal
05/01/2026 06 AM PDT 2.96 335 - Normal
05/01/2026 07 AM PDT 3.10 367 + Normal
05/01/2026 08 AM PDT 2.96 335 - Normal
05/01/2026 09 AM PDT 2.97 337 + Normal
05/01/2026 10 AM PDT 3.01 346 + Normal
05/01/2026 11 AM PDT 2.96 335 - Normal
05/01/2026 12 PM PDT 2.96 335 0 Normal
05/01/2026 01 PM PDT 2.86 313 - Normal
05/01/2026 02 PM PDT 2.90 321 + Normal
05/01/2026 03 PM PDT 2.82 304 - Normal
05/01/2026 04 PM PDT 2.77 293 - Normal
05/01/2026 05 PM PDT 2.77 293 0 Normal
05/01/2026 06 PM PDT 2.69 277 - Normal
05/01/2026 07 PM PDT 2.64 267 - Normal
05/01/2026 08 PM PDT 2.65 269 + Normal
05/01/2026 09 PM PDT 2.51 243 - Normal
05/01/2026 10 PM PDT 2.58 256 + Normal
05/01/2026 11 PM PDT 2.54 249 - Normal
05/02/2026 12 AM PDT 2.49 240 - Normal
05/02/2026 01 AM PDT 2.37 219 - Normal
05/02/2026 02 AM PDT 2.45 233 + Normal
05/02/2026 03 AM PDT 2.46 234 + Normal
05/02/2026 04 AM PDT 2.35 215 - Normal
05/02/2026 05 AM PDT 2.40 224 + Normal
05/02/2026 06 AM PDT 2.33 212 - Normal
05/02/2026 07 AM PDT 2.31 209 - Normal
05/02/2026 08 AM PDT 2.32 210 + Normal
05/02/2026 09 AM PDT 2.28 204 - Normal
05/02/2026 10 AM PDT 2.39 222 + Normal
05/02/2026 11 AM PDT 2.32 210 - Normal
05/02/2026 12 PM PDT 2.29 205 - Normal
05/02/2026 01 PM PDT 2.32 210 + Normal
05/02/2026 02 PM PDT 2.37 219 + Normal
05/02/2026 03 PM PDT 2.36 217 - Normal
05/02/2026 04 PM PDT 2.28 204 - Normal
05/02/2026 05 PM PDT 2.29 205 + Normal
05/02/2026 06 PM PDT 2.34 214 + Normal
05/02/2026 07 PM PDT 2.28 204 - Normal
05/02/2026 08 PM PDT 2.31 209 + Normal
05/02/2026 09 PM PDT 2.30 207 - Normal
05/02/2026 10 PM PDT 2.28 204 - Normal
05/02/2026 11 PM PDT 2.25 199 - Normal
05/03/2026 12 AM PDT 2.31 209 + Normal
05/03/2026 01 AM PDT 2.29 205 - Normal
05/03/2026 02 AM PDT 2.30 207 + Normal
05/03/2026 03 AM PDT 2.31 209 + Normal
05/03/2026 04 AM PDT 2.30 207 - Normal
05/03/2026 05 AM PDT 2.27 202 - Normal
05/03/2026 06 AM PDT 2.31 209 + Normal
05/03/2026 07 AM PDT 2.31 209 0 Normal
05/03/2026 08 AM PDT 2.31 209 0 Normal
05/03/2026 09 AM PDT 2.31 209 0 Normal
#
# FORECAST
#
# Date & Time (Local) Stage (Feet) Flow (cfs) Trend Forecast Status
# ---------------------------------------------------------------------------------
05/03/2026 10 AM PDT 2.31 209 Normal
05/03/2026 11 AM PDT 2.31 209 0 Normal
05/03/2026 12 PM PDT 2.31 209 0 Normal
05/03/2026 01 PM PDT 2.31 209 0 Normal
05/03/2026 02 PM PDT 2.31 209 0 Normal
05/03/2026 03 PM PDT 2.31 209 0 Normal
05/03/2026 04 PM PDT 2.31 209 0 Normal
05/03/2026 05 PM PDT 2.31 209 0 Normal
05/03/2026 06 PM PDT 2.31 209 0 Normal
05/03/2026 07 PM PDT 2.31 209 0 Normal
05/03/2026 08 PM PDT 2.31 209 0 Normal
05/03/2026 09 PM PDT 2.31 209 0 Normal
05/03/2026 10 PM PDT 2.31 209 0 Normal
05/03/2026 11 PM PDT 2.31 209 0 Normal
05/04/2026 12 AM PDT 2.31 209 0 Normal
05/04/2026 01 AM PDT 2.31 209 0 Normal
05/04/2026 02 AM PDT 2.31 209 0 Normal
05/04/2026 03 AM PDT 2.31 209 0 Normal
05/04/2026 04 AM PDT 2.31 209 0 Normal
05/04/2026 05 AM PDT 2.31 209 0 Normal
05/04/2026 06 AM PDT 2.31 209 0 Normal
05/04/2026 07 AM PDT 2.31 209 0 Normal
05/04/2026 08 AM PDT 2.31 209 0 Normal
05/04/2026 09 AM PDT 2.31 209 0 Normal
05/04/2026 10 AM PDT 2.31 209 0 Normal
05/04/2026 11 AM PDT 2.31 209 0 Normal
05/04/2026 12 PM PDT 2.31 209 0 Normal
05/04/2026 01 PM PDT 2.31 209 0 Normal
05/04/2026 02 PM PDT 2.31 209 0 Normal
05/04/2026 03 PM PDT 2.31 209 0 Normal
05/04/2026 04 PM PDT 2.31 209 0 Normal
05/04/2026 05 PM PDT 2.31 209 0 Normal
05/04/2026 06 PM PDT 2.31 209 0 Normal
05/04/2026 07 PM PDT 2.31 209 0 Normal
05/04/2026 08 PM PDT 2.31 209 0 Normal
05/04/2026 09 PM PDT 2.31 209 0 Normal
05/04/2026 10 PM PDT 2.31 209 0 Normal
05/04/2026 11 PM PDT 2.31 209 0 Normal
05/05/2026 12 AM PDT 2.31 209 0 Normal
05/05/2026 01 AM PDT 2.31 209 0 Normal
05/05/2026 02 AM PDT 2.31 209 0 Normal
05/05/2026 03 AM PDT 2.32 210 + Normal
05/05/2026 04 AM PDT 2.32 210 0 Normal
05/05/2026 05 AM PDT 2.33 212 + Normal
05/05/2026 06 AM PDT 2.34 214 + Normal
05/05/2026 07 AM PDT 2.35 215 + Normal
05/05/2026 08 AM PDT 2.35 215 0 Normal
05/05/2026 09 AM PDT 2.36 217 + Normal
05/05/2026 10 AM PDT 2.35 215 - Normal
05/05/2026 11 AM PDT 2.35 215 0 Normal
05/05/2026 12 PM PDT 2.34 214 - Normal
05/05/2026 01 PM PDT 2.33 212 - Normal
05/05/2026 02 PM PDT 2.32 210 - Normal
05/05/2026 03 PM PDT 2.32 210 0 Normal
05/05/2026 04 PM PDT 2.31 209 - Normal
05/05/2026 05 PM PDT 2.31 209 0 Normal
05/05/2026 06 PM PDT 2.31 209 0 Normal
05/05/2026 07 PM PDT 2.31 209 0 Normal
05/05/2026 08 PM PDT 2.31 209 0 Normal
05/05/2026 09 PM PDT 2.31 209 0 Normal
05/05/2026 10 PM PDT 2.31 209 0 Normal
05/05/2026 11 PM PDT 2.30 207 - Normal
05/06/2026 12 AM PDT 2.30 207 0 Normal
05/06/2026 01 AM PDT 2.30 207 0 Normal
05/06/2026 02 AM PDT 2.30 207 0 Normal
05/06/2026 03 AM PDT 2.30 207 0 Normal
05/06/2026 04 AM PDT 2.30 207 0 Normal
05/06/2026 05 AM PDT 2.30 207 0 Normal
05/06/2026 06 AM PDT 2.30 207 0 Normal
05/06/2026 07 AM PDT 2.30 207 0 Normal
05/06/2026 08 AM PDT 2.30 207 0 Normal
05/06/2026 09 AM PDT 2.30 207 0 Normal
05/06/2026 10 AM PDT 2.30 207 0 Normal
05/06/2026 11 AM PDT 2.30 207 0 Normal
05/06/2026 12 PM PDT 2.30 207 0 Normal
05/06/2026 01 PM PDT 2.30 207 0 Normal
05/06/2026 02 PM PDT 2.30 207 0 Normal
05/06/2026 03 PM PDT 2.30 207 0 Normal
05/06/2026 04 PM PDT 2.30 207 0 Normal
05/06/2026 05 PM PDT 2.30 207 0 Normal
05/06/2026 06 PM PDT 2.30 207 0 Normal
05/06/2026 07 PM PDT 2.30 207 0 Normal
05/06/2026 08 PM PDT 2.30 207 0 Normal
05/06/2026 09 PM PDT 2.30 207 0 Normal
05/06/2026 10 PM PDT 2.30 207 0 Normal
05/06/2026 11 PM PDT 2.30 207 0 Normal
05/07/2026 12 AM PDT 2.30 207 0 Normal
05/07/2026 01 AM PDT 2.30 207 0 Normal
05/07/2026 02 AM PDT 2.30 207 0 Normal
05/07/2026 03 AM PDT 2.30 207 0 Normal
05/07/2026 04 AM PDT 2.30 207 0 Normal
05/07/2026 05 AM PDT 2.30 207 0 Normal
05/07/2026 06 AM PDT 2.30 207 0 Normal
05/07/2026 07 AM PDT 2.30 207 0 Normal
05/07/2026 08 AM PDT 2.30 207 0 Normal
05/07/2026 09 AM PDT 2.30 207 0 Normal
05/07/2026 10 AM PDT 2.30 207 0 Normal
05/07/2026 11 AM PDT 2.30 207 0 Normal
05/07/2026 12 PM PDT 2.30 207 0 Normal
05/07/2026 01 PM PDT 2.30 207 0 Normal
05/07/2026 02 PM PDT 2.30 207 0 Normal
05/07/2026 03 PM PDT 2.30 207 0 Normal
05/07/2026 04 PM PDT 2.30 207 0 Normal
05/07/2026 05 PM PDT 2.30 207 0 Normal
05/07/2026 06 PM PDT 2.30 207 0 Normal
05/07/2026 07 PM PDT 2.30 207 0 Normal
05/07/2026 08 PM PDT 2.30 207 0 Normal
05/07/2026 09 PM PDT 2.30 207 0 Normal
05/07/2026 10 PM PDT 2.30 207 0 Normal
05/07/2026 11 PM PDT 2.30 207 0 Normal
05/08/2026 12 AM PDT 2.30 207 0 Normal
05/08/2026 01 AM PDT 2.30 207 0 Normal
05/08/2026 02 AM PDT 2.30 207 0 Normal
05/08/2026 03 AM PDT 2.30 207 0 Normal
05/08/2026 04 AM PDT 2.30 207 0 Normal
05/08/2026 05 AM PDT 2.30 207 0 Normal
05/08/2026 06 AM PDT 2.30 207 0 Normal
#
# NOTE 1: Stages are rounded to the nearest hundredth (.01) of a foot.
# NOTE 2: Flows are rounded to the nearest (1) cfs.
# NOTE 3: Trends are determined using hourly change in unrounded stage and flow.
# NOTE 4: Maximum Values are determined using unrounded stage and flow.
|